createdAt,value
2024-04-22T00:02:23.306Z,76.42
2024-04-22T00:04:53.338Z,76.71
2024-04-22T00:07:23.410Z,77.60
2024-04-22T00:09:50.823Z,77.34
2024-04-22T00:12:20.798Z,77.54
2024-04-22T00:14:48.254Z,77.87
2024-04-22T00:17:18.531Z,78.11
2024-04-22T00:19:45.983Z,78.03
2024-04-22T00:22:18.731Z,78.93
2024-04-22T00:24:46.196Z,79.12
2024-04-22T00:27:16.964Z,79.12
2024-04-22T00:29:44.422Z,79.40
2024-04-22T00:32:14.472Z,79.51
2024-04-22T00:34:42.061Z,79.69
2024-04-22T00:37:12.109Z,79.73
2024-04-22T00:39:42.110Z,79.89
2024-04-22T00:42:12.058Z,80.13
2024-04-22T00:44:39.437Z,80.66
2024-04-22T00:47:09.803Z,80.89
2024-04-22T00:49:37.916Z,80.82
2024-04-22T00:52:08.538Z,81.17
2024-04-22T00:54:36.552Z,81.43
2024-04-22T00:57:09.351Z,82.21
2024-04-22T00:59:37.306Z,82.48
2024-04-22T01:02:08.049Z,82.55
2024-04-22T01:04:37.874Z,82.91
2024-04-22T01:07:08.100Z,83.65
2024-04-22T01:09:35.604Z,83.77
2024-04-22T01:12:05.712Z,83.75
2024-04-22T01:14:35.733Z,84.26
2024-04-22T01:17:05.925Z,84.26
2024-04-22T01:19:33.670Z,84.77
2024-04-22T01:22:06.431Z,85.33
2024-04-22T01:24:33.833Z,85.50
2024-04-22T01:27:09.356Z,85.41
2024-04-22T01:29:36.785Z,85.69
2024-04-22T01:32:07.167Z,85.74
2024-04-22T01:34:34.867Z,86.34
2024-04-22T01:37:07.879Z,86.83
2024-04-22T01:39:35.269Z,87.36
2024-04-22T01:42:05.416Z,87.34
2024-04-22T01:44:32.810Z,87.92
2024-04-22T01:47:02.823Z,88.46
2024-04-22T01:49:30.327Z,88.28
2024-04-22T01:52:00.325Z,88.29
2024-04-22T01:54:30.351Z,88.85
2024-04-22T01:57:00.933Z,89.19
2024-04-22T01:59:28.423Z,89.80
2024-04-22T02:01:58.816Z,89.77
2024-04-22T02:04:26.934Z,89.65
2024-04-22T02:06:56.908Z,89.72
2024-04-22T02:09:24.439Z,90.02
2024-04-22T02:11:57.002Z,90.29
2024-04-22T02:14:24.387Z,90.62
2024-04-22T02:16:54.412Z,90.71
2024-04-22T02:19:22.046Z,90.87
2024-04-22T02:21:52.396Z,90.96
2024-04-22T02:24:19.890Z,91.11
2024-04-22T02:26:49.853Z,91.47
2024-04-22T02:29:19.847Z,91.71
2024-04-22T02:31:49.841Z,91.37
2024-04-22T02:34:18.584Z,91.37
2024-04-22T02:36:48.527Z,91.84
2024-04-22T02:39:15.882Z,91.85
2024-04-22T02:41:45.816Z,92.11
2024-04-22T02:44:13.202Z,92.08
2024-04-22T02:46:45.828Z,91.94
2024-04-22T02:49:13.242Z,91.48
2024-04-22T02:51:43.222Z,92.06
2024-04-22T02:54:10.621Z,92.02
2024-04-22T02:56:40.601Z,91.90
2024-04-22T02:59:07.983Z,92.03
2024-04-22T03:01:37.958Z,92.07
2024-04-22T03:04:08.390Z,92.93
2024-04-22T03:06:38.686Z,93.41
2024-04-22T03:09:06.107Z,93.28
2024-04-22T03:11:36.144Z,93.09
2024-04-22T03:14:03.615Z,93.58
2024-04-22T03:16:33.635Z,93.68
2024-04-22T03:19:01.039Z,93.72
2024-04-22T03:21:33.674Z,94.48
2024-04-22T03:24:01.103Z,94.91
2024-04-22T03:26:31.068Z,94.74
2024-04-22T03:28:58.467Z,94.86
2024-04-22T03:31:32.538Z,95.37
2024-04-22T03:34:00.939Z,95.77
2024-04-22T03:36:33.733Z,95.33
2024-04-22T03:39:03.993Z,95.67
2024-04-22T03:41:34.007Z,95.52
2024-04-22T03:44:01.407Z,96.01
2024-04-22T03:46:47.660Z,96.30
2024-04-22T03:49:33.877Z,96.03
2024-04-22T03:52:07.238Z,96.26
2024-04-22T03:54:37.268Z,96.20
2024-04-22T03:57:07.780Z,96.49
2024-04-22T03:59:39.361Z,96.38
2024-04-22T04:02:06.825Z,96.65
2024-04-22T04:04:37.461Z,97.26
2024-04-22T04:07:07.980Z,96.47
2024-04-22T04:09:38.280Z,96.30
2024-04-22T04:12:08.884Z,96.13
2024-04-22T04:14:36.330Z,96.19
2024-04-22T04:17:06.584Z,95.48
2024-04-22T04:19:34.150Z,95.42
2024-04-22T04:22:04.249Z,95.00
2024-04-22T04:24:34.322Z,94.72
2024-04-22T04:27:04.320Z,94.06
2024-04-22T04:29:31.730Z,93.43
2024-04-22T04:32:01.852Z,92.68
2024-04-22T04:34:29.511Z,92.38
2024-04-22T04:36:59.490Z,92.43
2024-04-22T04:39:27.200Z,92.24
2024-04-22T04:41:59.776Z,92.05
2024-04-22T04:44:27.146Z,91.69
2024-04-22T04:46:57.117Z,92.16
2024-04-22T04:49:24.768Z,91.59
2024-04-22T04:51:54.712Z,90.89
2024-04-22T04:54:22.100Z,90.07
2024-04-22T04:56:52.066Z,89.45
2024-04-22T04:59:22.249Z,88.88
2024-04-22T05:01:53.343Z,87.13
2024-04-22T05:04:21.019Z,86.67
2024-04-22T05:06:51.420Z,85.70
2024-04-22T05:09:19.094Z,85.47
2024-04-22T05:11:49.185Z,84.83
2024-04-22T05:14:16.635Z,83.50
2024-04-22T05:16:49.269Z,83.23
2024-04-22T05:19:16.718Z,82.43
2024-04-22T05:21:46.903Z,81.58
2024-04-22T05:24:14.514Z,81.14
2024-04-22T05:26:44.459Z,80.08
2024-04-22T05:29:11.844Z,79.08
2024-04-22T05:31:41.797Z,78.34
2024-04-22T05:34:30.532Z,77.37
2024-04-22T05:37:00.491Z,76.62
2024-04-22T05:39:31.865Z,75.60
2024-04-22T05:42:01.793Z,75.02
2024-04-22T05:44:31.817Z,74.96
2024-04-22T05:46:59.188Z,74.08
2024-04-22T05:49:31.957Z,74.04
2024-04-22T05:52:04.362Z,72.54
2024-04-22T05:54:34.942Z,71.64
2024-04-22T05:57:02.447Z,71.78
2024-04-22T05:59:32.397Z,71.06
2024-04-22T06:01:59.912Z,70.90
2024-04-22T06:04:33.156Z,69.94
2024-04-22T06:07:00.894Z,69.49
2024-04-22T06:09:31.194Z,69.23
2024-04-22T06:12:11.387Z,69.72
2024-04-22T06:14:45.188Z,69.17
2024-04-22T06:17:15.247Z,69.41
2024-04-22T06:19:45.352Z,69.04
2024-04-22T06:22:15.331Z,69.27
2024-04-22T06:24:42.737Z,69.06
2024-04-22T06:27:12.685Z,68.33
2024-04-22T06:29:40.259Z,67.24
2024-04-22T06:32:10.785Z,66.76
2024-04-22T06:34:38.304Z,66.37
2024-04-22T06:37:10.951Z,64.75
2024-04-22T06:39:38.488Z,64.56
2024-04-22T06:42:08.793Z,64.42
2024-04-22T06:44:36.174Z,63.93
2024-04-22T06:47:06.627Z,63.41
2024-04-22T06:49:34.691Z,63.32
2024-04-22T06:52:04.719Z,63.60
2024-04-22T06:54:34.959Z,63.19
2024-04-22T06:57:04.918Z,62.90
2024-04-22T06:59:32.574Z,61.83
2024-04-22T07:02:07.515Z,61.57
2024-04-22T07:04:37.482Z,61.14
2024-04-22T07:07:07.762Z,61.46
2024-04-22T07:09:37.873Z,62.07
2024-04-22T07:12:08.596Z,62.65
2024-04-22T07:14:35.992Z,63.37
2024-04-22T07:17:06.131Z,63.11
2024-04-22T07:19:33.692Z,63.28
2024-04-22T07:22:04.826Z,62.21
2024-04-22T07:24:32.484Z,61.41
2024-04-22T07:27:10.905Z,61.65
2024-04-22T07:29:43.950Z,61.71
2024-04-22T07:32:15.326Z,63.12
2024-04-22T07:34:43.487Z,61.47
2024-04-22T07:37:27.613Z,60.88
2024-04-22T07:40:06.103Z,61.64
2024-04-22T07:42:39.036Z,60.73
2024-04-22T07:45:07.881Z,60.28
2024-04-22T07:47:38.369Z,60.99
2024-04-22T07:50:06.958Z,59.72
2024-04-22T07:52:38.447Z,58.70
2024-04-22T07:55:06.809Z,59.43
2024-04-22T07:57:42.957Z,57.36
2024-04-22T08:00:12.980Z,58.94
2024-04-22T08:02:43.851Z,58.82
2024-04-22T08:05:12.229Z,58.23
2024-04-22T08:07:43.747Z,57.68
2024-04-22T08:10:11.494Z,58.14
2024-04-22T08:12:44.267Z,58.26
2024-04-22T08:15:11.654Z,57.59
2024-04-22T08:17:41.665Z,55.97
2024-04-22T08:20:09.907Z,56.63
2024-04-22T08:22:39.899Z,55.22
2024-04-22T08:25:08.290Z,56.56
2024-04-22T08:27:40.722Z,55.91
2024-04-22T08:30:12.118Z,56.81
2024-04-22T08:32:42.217Z,58.47
2024-04-22T08:35:09.742Z,59.20
2024-04-22T08:37:39.758Z,58.53
2024-04-22T08:40:08.483Z,58.53
2024-04-22T08:42:39.785Z,60.13
2024-04-22T08:45:07.913Z,61.56
2024-04-22T08:47:40.611Z,62.76
2024-04-22T08:50:08.265Z,63.52
2024-04-22T08:52:44.572Z,62.95
2024-04-22T08:55:19.467Z,61.60
2024-04-22T08:57:50.815Z,60.73
2024-04-22T09:00:18.320Z,61.54
2024-04-22T09:02:50.999Z,61.32
2024-04-22T09:05:18.801Z,60.19
2024-04-22T09:07:54.289Z,60.54
2024-04-22T09:10:55.355Z,59.40
2024-04-22T09:13:14.552Z,58.72
2024-04-22T09:15:42.365Z,57.69
2024-04-22T09:18:17.172Z,57.55
2024-04-22T09:20:44.786Z,56.53
2024-04-22T09:23:14.862Z,55.55
2024-04-22T09:25:42.569Z,55.58
2024-04-22T09:28:15.147Z,54.86
2024-04-22T09:30:49.696Z,54.84
2024-04-22T09:33:25.708Z,53.97
2024-04-22T09:35:53.786Z,54.36
2024-04-22T09:38:35.322Z,54.39
2024-04-22T09:41:11.909Z,54.70
2024-04-22T09:43:49.859Z,54.08
2024-04-22T09:46:21.125Z,53.61
2024-04-22T09:48:54.616Z,53.99
2024-04-22T09:51:23.985Z,54.49
2024-04-22T09:53:54.669Z,54.62
2024-04-22T09:56:25.843Z,55.07
2024-04-22T09:58:56.155Z,52.97
2024-04-22T10:01:23.951Z,53.49
2024-04-22T10:03:56.985Z,54.52
2024-04-22T10:06:26.077Z,54.88
2024-04-22T10:08:56.361Z,56.08
2024-04-22T10:11:31.079Z,56.13
2024-04-22T10:14:11.822Z,54.89
2024-04-22T10:16:40.023Z,54.03
2024-04-22T10:19:13.219Z,54.96
2024-04-22T10:21:41.333Z,52.44
2024-04-22T10:24:11.387Z,52.04
2024-04-22T10:26:47.689Z,53.01
2024-04-22T10:29:22.470Z,51.46
2024-04-22T10:31:50.001Z,51.41
2024-04-22T10:34:22.648Z,51.93
2024-04-22T10:36:52.463Z,52.08
2024-04-22T10:39:23.118Z,53.54
2024-04-22T10:41:50.750Z,54.38
2024-04-22T10:44:21.778Z,53.66
2024-04-22T10:46:49.386Z,54.67
2024-04-22T10:49:22.462Z,54.00
2024-04-22T10:51:50.387Z,54.47
2024-04-22T10:54:20.384Z,55.26
2024-04-22T10:56:47.823Z,54.41
2024-04-22T10:59:17.880Z,54.94
2024-04-22T11:01:46.323Z,55.99
2024-04-22T11:04:16.605Z,54.68
2024-04-22T11:06:48.061Z,53.95
2024-04-22T11:09:19.911Z,53.90
2024-04-22T11:11:48.271Z,53.41
2024-04-22T11:14:18.508Z,53.66
2024-04-22T11:16:45.940Z,54.54
2024-04-22T11:19:15.975Z,54.22
2024-04-22T11:21:43.454Z,53.58
2024-04-22T11:24:16.763Z,55.43
2024-04-22T11:26:44.500Z,56.54
2024-04-22T11:29:14.711Z,56.65
2024-04-22T11:31:42.266Z,56.24
2024-04-22T11:34:13.740Z,55.45
2024-04-22T11:36:41.880Z,57.06
2024-04-22T11:39:17.245Z,55.04
2024-04-22T11:41:44.751Z,55.30
2024-04-22T11:44:14.708Z,55.44
2024-04-22T11:46:42.317Z,56.91
2024-04-22T11:49:12.361Z,57.12
2024-04-22T11:51:40.065Z,59.16
2024-04-22T11:54:10.069Z,62.24
2024-04-22T11:56:41.453Z,62.79
2024-04-22T11:59:11.444Z,63.34
2024-04-22T12:01:39.377Z,62.43
2024-04-22T12:04:09.473Z,60.96
2024-04-22T12:06:38.066Z,58.76
2024-04-22T12:09:10.952Z,58.33
2024-04-22T12:11:42.550Z,56.73
2024-04-22T12:14:12.851Z,56.32
2024-04-22T12:16:40.477Z,56.07
2024-04-22T12:19:11.717Z,55.33
2024-04-22T12:21:39.379Z,56.20
2024-04-22T12:24:09.912Z,55.73
2024-04-22T12:26:37.313Z,53.50
2024-04-22T12:29:10.320Z,56.32
2024-04-22T12:31:37.858Z,58.93
2024-04-22T12:34:12.828Z,59.61
2024-04-22T12:36:41.684Z,61.10
2024-04-22T12:39:11.885Z,62.37
2024-04-22T12:41:39.436Z,63.13
2024-04-22T12:44:12.066Z,63.36
2024-04-22T12:47:02.237Z,65.11
2024-04-22T12:49:51.004Z,65.04
2024-04-22T12:52:23.184Z,66.96
2024-04-22T12:54:54.207Z,67.11
2024-04-22T12:57:24.220Z,65.94
2024-04-22T13:00:00.382Z,66.92
2024-04-22T13:02:30.755Z,66.39
2024-04-22T13:05:00.145Z,64.10
2024-04-22T13:07:30.336Z,61.03
2024-04-22T13:10:00.419Z,56.94
2024-04-22T13:12:31.008Z,55.55
2024-04-22T13:15:01.209Z,56.60
2024-04-22T13:17:31.582Z,56.12
2024-04-22T13:20:01.580Z,55.82
2024-04-22T13:22:33.540Z,56.00
2024-04-22T13:25:04.131Z,56.88
2024-04-22T13:27:36.453Z,58.46
2024-04-22T13:30:10.526Z,60.18
2024-04-22T13:32:42.405Z,59.96
2024-04-22T13:35:10.084Z,59.46
2024-04-22T13:37:41.083Z,59.77
2024-04-22T13:40:09.424Z,56.46
2024-04-22T13:42:44.308Z,57.85
2024-04-22T13:45:16.712Z,59.91
2024-04-22T13:47:46.819Z,57.49
2024-04-22T13:50:14.504Z,58.51
2024-04-22T13:52:44.855Z,58.86
2024-04-22T13:55:12.581Z,59.96
2024-04-22T13:57:42.554Z,61.85
2024-04-22T14:00:13.120Z,62.26
2024-04-22T14:02:48.791Z,60.29
2024-04-22T14:05:16.493Z,59.01
2024-04-22T14:07:46.934Z,58.27
2024-04-22T14:10:15.128Z,57.72
2024-04-22T14:12:45.682Z,58.34
2024-04-22T14:15:13.325Z,57.25
2024-04-22T14:17:43.493Z,58.12
2024-04-22T14:20:14.312Z,55.78
2024-04-22T14:22:44.368Z,56.57
2024-04-22T14:25:11.853Z,56.18
2024-04-22T14:27:41.858Z,56.07
2024-04-22T14:30:10.569Z,54.32
2024-04-22T14:32:40.810Z,53.63
2024-04-22T14:35:08.422Z,53.02
2024-04-22T14:37:41.279Z,52.88
2024-04-22T14:40:09.207Z,53.34
2024-04-22T14:42:39.461Z,54.29
2024-04-22T14:45:08.103Z,55.25
2024-04-22T14:47:38.232Z,54.92
2024-04-22T14:50:06.496Z,56.21
2024-04-22T14:52:36.503Z,56.39
2024-04-22T14:55:08.646Z,58.24
2024-04-22T14:57:39.000Z,58.17
2024-04-22T15:00:08.006Z,59.32
2024-04-22T15:02:38.015Z,60.76
2024-04-22T15:05:07.420Z,61.30
2024-04-22T15:07:38.004Z,60.21
2024-04-22T15:10:08.409Z,59.70
2024-04-22T15:12:38.447Z,59.48
2024-04-22T15:15:06.713Z,59.21
2024-04-22T15:17:38.192Z,59.11
2024-04-22T15:20:06.987Z,59.58
2024-04-22T15:22:36.984Z,59.35
2024-04-22T15:25:07.710Z,59.52
2024-04-22T15:27:37.702Z,60.42
2024-04-22T15:30:06.603Z,60.49
2024-04-22T15:32:36.639Z,61.16
2024-04-22T15:35:04.515Z,61.87
2024-04-22T15:37:34.560Z,61.07
2024-04-22T15:40:02.189Z,61.74
2024-04-22T15:42:34.871Z,60.62
2024-04-22T15:45:02.493Z,60.78
2024-04-22T15:47:32.626Z,60.26
2024-04-22T15:50:00.233Z,60.56
2024-04-22T15:52:30.287Z,60.66
2024-04-22T15:54:57.761Z,60.52
2024-04-22T15:57:28.748Z,61.03
2024-04-22T16:00:06.864Z,60.73
2024-04-22T16:02:40.223Z,59.63
2024-04-22T16:05:09.172Z,59.01
2024-04-22T16:07:39.366Z,61.46
2024-04-22T16:10:07.593Z,61.47
2024-04-22T16:12:43.368Z,60.68
2024-04-22T16:15:13.516Z,61.16
2024-04-22T16:17:43.804Z,61.61
2024-04-22T16:20:11.351Z,60.16
2024-04-22T16:22:41.472Z,58.82
2024-04-22T16:25:08.890Z,59.71
2024-04-22T16:27:38.890Z,60.59
2024-04-22T16:30:09.643Z,58.54
2024-04-22T16:32:42.262Z,58.05
2024-04-22T16:35:11.886Z,57.61
2024-04-22T16:37:43.785Z,57.57
2024-04-22T16:40:11.861Z,58.53
2024-04-22T16:42:41.855Z,55.89
2024-04-22T16:45:09.333Z,56.66
2024-04-22T16:47:42.045Z,54.29
2024-04-22T16:50:09.875Z,54.88
2024-04-22T16:52:39.902Z,56.08
2024-04-22T16:55:07.672Z,56.57
2024-04-22T16:57:37.680Z,55.26
2024-04-22T17:00:05.744Z,55.83
2024-04-22T17:02:35.839Z,55.56
2024-04-22T17:05:08.087Z,55.63
2024-04-22T17:07:38.549Z,58.06
2024-04-22T17:10:08.166Z,56.50
2024-04-22T17:12:38.197Z,56.97
2024-04-22T17:15:06.293Z,57.18
2024-04-22T17:17:37.428Z,58.52
2024-04-22T17:20:09.210Z,58.82
2024-04-22T17:22:39.606Z,58.85
2024-04-22T17:25:07.548Z,59.50
2024-04-22T17:27:37.572Z,59.76
2024-04-22T17:30:06.003Z,61.71
2024-04-22T17:32:36.173Z,62.69
2024-04-22T17:35:04.565Z,62.69
2024-04-22T17:37:37.273Z,62.36
2024-04-22T17:40:08.340Z,65.88
2024-04-22T17:42:38.329Z,67.71
2024-04-22T17:45:06.293Z,68.80
2024-04-22T17:47:36.501Z,67.34
2024-04-22T17:50:04.278Z,68.20
2024-04-22T17:52:37.979Z,69.66
2024-04-22T17:55:07.517Z,71.16
2024-04-22T17:57:37.958Z,71.20
2024-04-22T18:00:07.457Z,71.50
2024-04-22T18:02:38.040Z,72.34
2024-04-22T18:05:06.572Z,73.50
2024-04-22T18:07:39.442Z,74.38
2024-04-22T18:10:07.870Z,75.40
2024-04-22T18:12:39.464Z,75.61
2024-04-22T18:15:07.648Z,76.50
2024-04-22T18:17:39.045Z,77.12
2024-04-22T18:20:08.832Z,78.02
2024-04-22T18:22:46.963Z,78.46
2024-04-22T18:25:18.062Z,79.23
2024-04-22T18:27:48.075Z,79.74
2024-04-22T18:30:15.598Z,80.51
2024-04-22T18:32:46.049Z,80.58
2024-04-22T18:35:13.488Z,80.57
2024-04-22T18:37:46.052Z,80.45
2024-04-22T18:40:13.478Z,80.50
2024-04-22T18:42:43.468Z,80.23
2024-04-22T18:45:10.861Z,80.38
2024-04-22T18:47:40.951Z,80.47
2024-04-22T18:50:08.530Z,79.95
2024-04-22T18:52:38.611Z,80.18
2024-04-22T18:55:09.038Z,81.23
2024-04-22T18:57:39.034Z,81.83
2024-04-22T19:00:11.294Z,81.39
2024-04-22T19:02:41.320Z,81.66
2024-04-22T19:05:08.825Z,81.72
2024-04-22T19:07:41.931Z,82.08
2024-04-22T19:10:12.497Z,82.28
2024-04-22T19:12:42.528Z,82.94
2024-04-22T19:15:09.958Z,82.50
2024-04-22T19:17:40.149Z,83.18
2024-04-22T19:20:08.918Z,82.84
2024-04-22T19:22:38.972Z,83.07
2024-04-22T19:25:06.604Z,82.53
2024-04-22T19:27:39.265Z,83.36
2024-04-22T19:30:07.676Z,83.27
2024-04-22T19:32:38.029Z,84.08
2024-04-22T19:35:05.927Z,83.89
2024-04-22T19:37:37.461Z,84.01
2024-04-22T19:40:05.851Z,84.54
2024-04-22T19:42:35.862Z,84.78
2024-04-22T19:45:07.767Z,85.26
2024-04-22T19:47:38.340Z,85.80
2024-04-22T19:50:07.653Z,86.03
2024-04-22T19:52:38.945Z,86.76
2024-04-22T19:55:07.827Z,87.45
2024-04-22T19:57:37.885Z,88.72
2024-04-22T20:00:09.908Z,88.31
2024-04-22T20:02:39.937Z,88.60
2024-04-22T20:05:08.318Z,88.74
2024-04-22T20:07:39.595Z,89.64
2024-04-22T20:10:07.866Z,90.35
2024-04-22T20:12:37.951Z,89.95
2024-04-22T20:15:09.377Z,90.13
2024-04-22T20:18:03.643Z,89.88
2024-04-22T20:20:31.653Z,90.18
2024-04-22T20:23:02.116Z,91.07
2024-04-22T20:25:29.531Z,91.35
2024-04-22T20:27:59.596Z,91.23
2024-04-22T20:30:29.639Z,91.66
2024-04-22T20:33:01.129Z,91.62
2024-04-22T20:35:28.739Z,91.98
2024-04-22T20:37:58.748Z,92.06
2024-04-22T20:40:27.958Z,92.33
2024-04-22T20:42:58.082Z,92.58
2024-04-22T20:45:28.199Z,91.97
2024-04-22T20:48:00.810Z,92.32
2024-04-22T20:50:28.262Z,92.43
2024-04-22T20:52:58.269Z,92.66
2024-04-22T20:55:25.696Z,92.58
2024-04-22T20:57:55.671Z,92.67
2024-04-22T21:00:23.170Z,93.01
2024-04-22T21:02:53.175Z,93.31
2024-04-22T21:05:23.337Z,93.61
2024-04-22T21:07:53.390Z,93.27
2024-04-22T21:10:31.855Z,93.49
2024-04-22T21:13:01.852Z,93.16
2024-04-22T21:15:29.234Z,93.41
2024-04-22T21:17:59.516Z,94.03
2024-04-22T21:20:29.527Z,94.25
2024-04-22T21:23:00.257Z,93.92
2024-04-22T21:25:27.720Z,93.98
2024-04-22T21:27:57.753Z,93.54
2024-04-22T21:30:25.141Z,93.57
2024-04-22T21:33:11.371Z,93.50
2024-04-22T21:35:45.513Z,93.54
2024-04-22T21:38:17.194Z,93.57
2024-04-22T21:40:45.870Z,94.02
2024-04-22T21:43:15.920Z,93.72
2024-04-22T21:45:43.602Z,93.20
2024-04-22T21:48:13.725Z,93.30
2024-04-22T21:50:41.141Z,93.10
2024-04-22T21:53:13.799Z,92.90
2024-04-22T21:56:05.817Z,92.42
2024-04-22T21:59:13.279Z,91.85
2024-04-22T22:02:18.622Z,92.06
2024-04-22T22:05:26.296Z,91.57
2024-04-22T22:07:53.628Z,91.33
2024-04-22T22:10:26.360Z,91.09
2024-04-22T22:12:53.791Z,91.28
2024-04-22T22:15:23.783Z,91.21
2024-04-22T22:17:54.710Z,91.90
2024-04-22T22:20:26.344Z,92.45
2024-04-22T22:22:53.845Z,91.77
2024-04-22T22:25:27.169Z,91.94
2024-04-22T22:27:54.665Z,91.42
2024-04-22T22:30:24.648Z,91.34
2024-04-22T22:32:54.777Z,91.77
2024-04-22T22:35:22.259Z,92.31
2024-04-22T22:37:52.350Z,92.83
2024-04-22T22:40:19.756Z,92.79
2024-04-22T22:42:52.307Z,92.49
2024-04-22T22:45:19.934Z,92.04
2024-04-22T22:47:49.942Z,92.38
2024-04-22T22:50:18.220Z,92.29
2024-04-22T22:52:48.208Z,92.17
2024-04-22T22:55:15.641Z,91.74
2024-04-22T22:57:45.601Z,91.49
2024-04-22T23:00:16.063Z,91.46
2024-04-22T23:02:46.044Z,91.35
2024-04-22T23:05:13.609Z,91.84
2024-04-22T23:07:44.388Z,92.03
2024-04-22T23:10:11.818Z,91.67
2024-04-22T23:12:41.778Z,91.64
2024-04-22T23:15:09.144Z,91.22
2024-04-22T23:17:41.823Z,90.79
2024-04-22T23:20:09.529Z,90.85
2024-04-22T23:22:39.718Z,91.36
2024-04-22T23:25:07.449Z,90.92
2024-04-22T23:27:39.883Z,90.47
2024-04-22T23:30:09.198Z,90.50
2024-04-22T23:32:41.946Z,90.83
2024-04-22T23:35:09.362Z,90.79
2024-04-22T23:37:39.338Z,90.57
2024-04-22T23:40:07.753Z,90.68
2024-04-22T23:42:37.723Z,91.71
2024-04-22T23:45:05.623Z,91.53
2024-04-22T23:47:35.682Z,91.69
2024-04-22T23:50:06.741Z,91.46
2024-04-22T23:52:36.752Z,91.39
2024-04-22T23:55:04.872Z,91.51
2024-04-22T23:57:34.970Z,91.43
